Axtell, UT

12:34 PM MDT on September 23, 2014 (GMT -0600)
RAWS FILLMORE PORT #2 UT US | Change Station
CLOSE
Current Station
Personal Weather Station
Location: Scipio, UT
Elevation: 6157 ft
Nearby Weather Stations

Elev 6157 ft 39.13 °N, 112.04 °W | Updated 37 minutes ago

Clear
Clear
75 °F
Feels Like 78 °F
N
5
Wind Variable Wind from SW
Gusts 8.0 mph

Today
High -- | Low -- °F
--% Chance of Precip.
Yesterday
High -- | Low -- °F
Precip. -- in
7:15 AM 7:22 PM
Waning Crescent, 0% visible
Pressure 30.07 in
Visibility 10.0 miles
Clouds Clear
Heat Index 78 °F
Dew Point 50 °F
Humidity 41%
Rainfall 0.00 in
Snow Depth 0 in , 0 in , 0 in
UV 7 out of 12
Pollen 5.00 out of 12
Air Quality Not available.
Flu Activity Not available.
METAR KPUC 231753Z AUTO 17007KT 10SM CLR 22/12 A3026 RMK AO2 SLP183 T02220117 10222 20117 50000

More Conditions Fewer Conditions

Pressure 30.07 in
Visibility 10.0 miles
Clouds Clear
Heat Index 78 °F
Dew Point 50 °F
Humidity 41%
Rainfall 0.00 in
Snow Depth 0 in , 0 in , 0 in
UV 7 out of 12
Pollen 5.00 out of 12
Air Quality Not available.
Flu Activity Not available.
METAR KPUC 231753Z AUTO 17007KT 10SM CLR 22/12 A3026 RMK AO2 SLP183 T02220117 10222 20117 50000

More Conditions Fewer Conditions

10-Day Weather Forecast

Almanac

Astronomy

Sep. 23, 2014 Rise Set
Actual Time 7:15 AM MDT 7:22 PM MDT
Civil Twilight 6:49 AM MDT 7:49 PM MDT
Nautical Twilight 6:17 AM MDT 8:20 PM MDT
Astronomical Twilight 5:46 AM MDT 8:51 PM MDT
Moon 6:43 AM MDT 7:03 PM MDT
Length of Visible Light 12h 59m
Length of Day
12h 06m
Tomorrow will be 2m 31s shorter.
Waning Crescent, 0% of the Moon is Illuminated
Today
Waning Crescent
Sep 24
New
Oct 1
First Quarter
Oct 8
Full
Oct 15
Last Quarter

Today's Extremes

State Highs State Lows

Community

WunderPhotos

Upload Photos

1,755,775 photos uploaded!

Nearby

Snow Depth

Station Depth Elevation
Brighton 0 in 8750 ft
Dry Fork 0 in 7160 ft
Chepeta 0 in 10300 ft
Smith & Morehouse 0 in 7600 ft
Strawberry Divide 0 in 8400 ft

Earthquake Activity

City Distance Mag. Time & Date
No recent earthquake activity has been reported nearby.
Minimum magnitude displayed is 2.5.

Coastal Water Temperatures

Place Temperature
No Stations Reporting

Nearby Weather Stations